Time;durP1;ratioP1;P1;durP2;ratioP2;P2;SDS_P1;SDS_P2;PMS_P1;PMS_P2;Temp;Humidity;BMP_temperature;BMP_pressure;BME280_temperature;BME280_humidity;BME280_pressure;Samples;Min_cycle;Max_cycle;Signal;HPM_P1;HPM_P2
2022/03/23 00:01:38;;;;;;;20.67;12.98;;;10.90;50.80;;;;;;5032365;28;20021;-76
2022/03/23 00:04:04;;;;;;;17.75;12.25;;;10.90;50.40;;;;;;5032373;28;20025;-74
2022/03/23 00:06:29;;;;;;;19.20;12.63;;;11.00;50.20;;;;;;5032474;28;20052;-76
2022/03/23 00:08:57;;;;;;;18.98;13.30;;;11.00;50.20;;;;;;5032204;28;20099;-76
2022/03/23 00:11:24;;;;;;;20.80;12.32;;;10.90;50.30;;;;;;5032311;28;20018;-77
2022/03/23 00:13:52;;;;;;;20.80;14.00;;;10.80;50.30;;;;;;5032095;28;20435;-76
2022/03/23 00:16:21;;;;;;;30.88;15.23;;;10.60;50.80;;;;;;5032238;28;20032;-76
2022/03/23 00:18:47;;;;;;;24.25;17.40;;;10.50;51.20;;;;;;5030919;28;20075;-77
2022/03/23 00:21:14;;;;;;;18.98;13.02;;;10.40;52.30;;;;;;5032045;28;20112;-76
2022/03/23 00:23:43;;;;;;;16.70;13.10;;;10.30;52.00;;;;;;5032230;28;20032;-76
2022/03/23 00:26:09;;;;;;;19.40;13.15;;;10.20;51.90;;;;;;5031824;28;20036;-76
2022/03/23 00:28:34;;;;;;;18.25;12.90;;;10.20;51.90;;;;;;5024842;28;20034;-76
2022/03/23 00:31:00;;;;;;;19.95;13.70;;;10.20;51.80;;;;;;5031941;28;20083;-76
2022/03/23 00:33:26;;;;;;;20.70;13.93;;;10.20;52.30;;;;;;5031966;28;20033;-76
2022/03/23 00:35:53;;;;;;;19.48;13.02;;;10.40;52.00;;;;;;5031560;28;20546;-76
2022/03/23 00:38:22;;;;;;;17.90;12.57;;;10.50;51.80;;;;;;5031754;28;20026;-76
2022/03/23 00:40:50;;;;;;;19.75;14.07;;;10.60;51.30;;;;;;5031829;28;20036;-75
2022/03/23 00:43:16;;;;;;;18.75;13.82;;;10.60;51.80;;;;;;5031673;28;20581;-76
2022/03/23 00:45:45;;;;;;;20.23;12.38;;;10.40;52.10;;;;;;5022921;28;20041;-76
2022/03/23 00:48:13;;;;;;;16.00;12.00;;;10.30;52.00;;;;;;5031447;28;20122;-76
2022/03/23 00:50:39;;;;;;;21.10;12.50;;;10.20;52.00;;;;;;5031508;28;20029;-75
2022/03/23 00:53:06;;;;;;;17.13;12.75;;;10.20;51.90;;;;;;5031823;28;20439;-75
2022/03/23 00:55:33;;;;;;;18.27;12.52;;;10.20;52.40;;;;;;5031074;28;20093;-75
2022/03/23 00:58:01;;;;;;;14.88;11.88;;;10.10;52.10;;;;;;5031512;28;20029;-76
2022/03/23 01:00:30;;;;;;;21.67;12.73;;;10.20;52.50;;;;;;5029796;28;20037;-76
2022/03/23 01:05:51;;;;;;;21.65;13.05;;;10.10;52.40;;;;;;5021889;28;20082;-76
2022/03/23 01:08:20;;;;;;;18.25;11.73;;;10.00;52.70;;;;;;5031210;28;20109;-76
2022/03/23 01:10:48;;;;;;;18.40;12.32;;;9.90;52.60;;;;;;5030634;28;20048;-76
2022/03/23 01:14:02;;;;;;;17.88;11.98;;;9.80;53.00;;;;;;5030017;28;20025;-76
2022/03/23 01:16:28;;;;;;;15.45;12.18;;;9.80;52.90;;;;;;5021965;28;20049;-76
2022/03/23 01:18:57;;;;;;;21.00;12.60;;;9.90;52.70;;;;;;5030867;28;20025;-76
2022/03/23 01:22:02;;;;;;;17.15;11.23;;;9.90;52.90;;;;;;5030995;28;20040;-76
2022/03/23 01:24:28;;;;;;;18.70;13.15;;;10.00;52.40;;;;;;5027892;28;20032;-76
2022/03/23 01:27:09;;;;;;;19.75;12.05;;;10.10;52.80;;;;;;5031189;28;20514;-76
2022/03/23 01:29:36;;;;;;;17.40;11.35;;;10.00;52.60;;;;;;5029219;28;20434;-76
2022/03/23 01:32:05;;;;;;;17.40;11.57;;;10.10;52.60;;;;;;5022117;28;20041;-75
2022/03/23 01:34:37;;;;;;;15.68;11.77;;;10.10;52.60;;;;;;5029298;28;20034;-75
2022/03/23 01:37:18;;;;;;;16.77;12.30;;;10.10;52.50;;;;;;5030533;28;20041;-75
2022/03/23 01:39:49;;;;;;;16.85;11.82;;;10.10;52.40;;;;;;5030560;28;20522;-75
2022/03/23 01:42:34;;;;;;;17.88;12.63;;;10.20;52.00;;;;;;5030763;28;20021;-75
2022/03/23 01:45:00;;;;;;;20.92;11.80;;;10.30;52.20;;;;;;5029545;28;20036;-75
2022/03/23 01:47:48;;;;;;;19.63;11.95;;;10.30;52.00;;;;;;5030508;28;20018;-75
2022/03/23 01:50:42;;;;;;;16.38;12.02;;;10.20;52.00;;;;;;5027029;28;20116;-75
2022/03/23 01:53:38;;;;;;;17.40;12.30;;;10.20;52.20;;;;;;5023434;28;20025;-75
2022/03/23 01:56:09;;;;;;;17.10;11.90;;;10.00;52.50;;;;;;5019774;28;20054;-75
2022/03/23 01:58:39;;;;;;;17.30;11.90;;;9.90;52.60;;;;;;5026820;28;20064;-75
2022/03/23 02:01:13;;;;;;;19.70;12.10;;;9.80;52.70;;;;;;5023369;28;20030;-76
2022/03/23 02:04:00;;;;;;;21.92;11.45;;;9.60;53.20;;;;;;5030615;28;20029;-76
2022/03/23 02:06:59;;;;;;;21.23;11.68;;;9.50;53.80;;;;;;5021805;28;20439;-75
2022/03/23 02:09:28;;;;;;;15.70;11.52;;;9.30;54.00;;;;;;5028432;28;20113;-75
2022/03/23 02:11:55;;;;;;;16.90;11.55;;;9.20;54.20;;;;;;5030556;28;20029;-75
2022/03/23 02:14:48;;;;;;;16.88;11.90;;;9.20;54.20;;;;;;5030520;28;20025;-75
2022/03/23 02:17:54;;;;;;;22.80;12.10;;;9.10;54.50;;;;;;5025107;28;20038;-75
2022/03/23 02:20:27;;;;;;;15.98;11.35;;;9.10;54.70;;;;;;5022955;28;20060;-75
2022/03/23 02:23:02;;;;;;;16.67;11.80;;;9.10;54.60;;;;;;5030194;28;20026;-75
2022/03/23 02:25:29;;;;;;;15.05;11.10;;;9.30;54.20;;;;;;5030316;28;20030;-75
2022/03/23 02:27:59;;;;;;;17.85;11.70;;;9.40;54.00;;;;;;5029208;28;20045;-74
2022/03/23 02:30:45;;;;;;;15.15;10.98;;;9.60;53.40;;;;;;5030349;28;20439;-75
2022/03/23 02:33:17;;;;;;;17.95;11.98;;;9.80;52.90;;;;;;5023669;28;20040;-75
2022/03/23 02:36:19;;;;;;;20.95;11.40;;;10.10;52.80;;;;;;5021743;28;20088;-75
2022/03/23 02:38:54;;;;;;;23.13;11.60;;;10.20;52.30;;;;;;5018047;28;20631;-75
2022/03/23 02:41:23;;;;;;;18.48;11.35;;;10.20;52.50;;;;;;5028046;28;20028;-74
2022/03/23 02:44:03;;;;;;;18.13;12.00;;;10.20;52.20;;;;;;5033760;28;20116;-75
2022/03/23 02:46:39;;;;;;;23.73;11.77;;;10.20;52.40;;;;;;5033794;28;20032;-75
2022/03/23 02:49:10;;;;;;;17.75;11.63;;;10.30;52.10;;;;;;5029338;28;20033;-75
2022/03/23 02:51:56;;;;;;;21.63;12.27;;;10.20;52.00;;;;;;5020996;28;20179;-75
2022/03/23 03:03:48;;;;;;;18.00;11.68;;;10.30;53.10;;;;;;5031875;28;20059;-76
2022/03/23 03:06:14;;;;;;;15.98;11.50;;;10.00;52.70;;;;;;5032342;28;20480;-76
2022/03/23 03:08:47;;;;;;;15.05;10.95;;;9.90;52.90;;;;;;5033303;28;20458;-76
2022/03/23 03:11:17;;;;;;;19.23;11.60;;;9.80;53.10;;;;;;5033713;28;20026;-75
2022/03/23 03:13:45;;;;;;;14.68;10.60;;;9.70;53.30;;;;;;5033229;28;20030;-75
2022/03/23 03:16:19;;;;;;;20.65;12.18;;;9.70;53.50;;;;;;5033437;28;20025;-76
2022/03/23 03:18:52;;;;;;;15.75;11.27;;;9.60;53.90;;;;;;5033214;28;20496;-75
2022/03/23 03:21:32;;;;;;;14.35;10.23;;;9.50;54.40;;;;;;5032050;28;20068;-76
2022/03/23 03:24:09;;;;;;;23.40;11.18;;;9.40;54.00;;;;;;5026193;28;20017;-76
2022/03/23 03:26:46;;;;;;;15.40;10.45;;;9.50;53.70;;;;;;5033204;28;20043;-75
2022/03/23 03:34:14;;;;;;;15.32;11.10;;;9.70;53.30;;;;;;5040892;28;20040;-75
2022/03/23 03:36:46;;;;;;;;;;;;;;;;;;;;;
2022/03/23 03:43:15;;;;;;;14.50;10.70;;;9.70;53.40;;;;;;5030238;28;20084;-75
2022/03/23 03:45:45;;;;;;;19.65;11.27;;;9.80;53.20;;;;;;5031437;28;20037;-75
2022/03/23 03:48:29;;;;;;;19.98;11.68;;;9.70;53.30;;;;;;5032636;28;20018;-75
2022/03/23 03:51:08;;;;;;;15.60;11.50;;;9.70;53.30;;;;;;5025643;28;20026;-75
2022/03/23 03:53:44;;;;;;;19.90;11.43;;;9.60;53.50;;;;;;5032521;28;20124;-75
2022/03/23 03:56:15;;;;;;;15.02;11.25;;;9.50;54.00;;;;;;5032466;28;20045;-75
2022/03/23 03:59:03;;;;;;;15.15;11.15;;;9.40;54.10;;;;;;5025510;28;20025;-75
2022/03/23 04:04:51;;;;;;;17.13;11.13;;;9.40;54.20;;;;;;5044103;28;20033;-76
2022/03/23 04:07:17;;;;;;;18.60;12.80;;;9.40;54.20;;;;;;5030865;28;20038;-76
2022/03/23 04:10:42;;;;;;;18.80;11.80;;;9.40;54.00;;;;;;5032146;28;20464;-76
2022/03/23 04:12:56;;;;;;;16.45;11.95;;;9.40;53.70;;;;;;5022024;28;20048;-75
2022/03/23 04:15:25;;;;;;;16.63;11.60;;;9.50;53.60;;;;;;5031748;28;20041;-76
2022/03/23 04:18:15;;;;;;;17.15;11.10;;;9.50;53.50;;;;;;5032240;28;20053;-77
2022/03/23 04:20:51;;;;;;;23.10;12.38;;;9.50;54.10;;;;;;5031560;28;20539;-77
2022/03/23 04:23:17;;;;;;;16.17;11.80;;;9.40;54.30;;;;;;5032291;28;20029;-76
2022/03/23 04:25:43;;;;;;;17.30;11.77;;;9.30;54.60;;;;;;5023329;28;20094;-76
2022/03/23 04:28:27;;;;;;;17.98;12.23;;;9.20;54.80;;;;;;5032123;28;20029;-76
2022/03/23 04:30:56;;;;;;;18.60;11.55;;;9.10;55.10;;;;;;5023525;28;20480;-76
2022/03/23 04:33:22;;;;;;;21.20;11.57;;;9.00;55.10;;;;;;5030943;28;20025;-76
2022/03/23 04:35:48;;;;;;;21.48;11.85;;;9.20;54.20;;;;;;5030235;28;20054;-76
2022/03/23 04:38:14;;;;;;;16.23;10.93;;;9.30;54.10;;;;;;5031726;28;20105;-77
2022/03/23 04:40:41;;;;;;;13.60;10.93;;;9.30;54.20;;;;;;5031849;28;20171;-76
2022/03/23 04:43:06;;;;;;;15.73;11.70;;;9.30;54.20;;;;;;5031365;28;20039;-77
2022/03/23 04:45:32;;;;;;;17.48;12.10;;;9.30;54.10;;;;;;5032076;28;20109;-76
2022/03/23 04:48:08;;;;;;;17.40;11.18;;;9.30;53.80;;;;;;5031536;28;20484;-77
2022/03/23 04:50:42;;;;;;;13.23;10.23;;;9.40;53.70;;;;;;5031510;28;20567;-76
2022/03/23 04:53:11;;;;;;;16.10;11.20;;;9.40;53.70;;;;;;5030194;28;20551;-76
2022/03/23 04:55:42;;;;;;;17.35;11.20;;;9.40;53.80;;;;;;5031291;28;20061;-77
2022/03/23 04:58:12;;;;;;;18.33;11.60;;;9.40;54.10;;;;;;5031329;28;20022;-76
2022/03/23 05:00:50;;;;;;;17.10;11.15;;;9.40;53.90;;;;;;5031482;28;20087;-77
2022/03/23 05:03:22;;;;;;;17.02;12.20;;;9.30;54.00;;;;;;5029033;28;20400;-77
2022/03/23 05:05:50;;;;;;;17.63;10.70;;;9.40;53.80;;;;;;5023296;28;20036;-77
2022/03/23 05:08:21;;;;;;;19.63;11.20;;;9.40;53.80;;;;;;5031127;28;20033;-77
2022/03/23 05:10:48;;;;;;;14.50;11.07;;;9.40;53.90;;;;;;5023402;28;20068;-76
2022/03/23 05:13:29;;;;;;;21.98;11.52;;;9.30;54.40;;;;;;5030175;28;20029;-76
2022/03/23 05:16:09;;;;;;;17.00;11.63;;;9.30;54.30;;;;;;5023679;28;20041;-77
2022/03/23 05:18:38;;;;;;;15.90;10.75;;;9.30;54.40;;;;;;5031054;28;20026;-77
2022/03/23 05:21:04;;;;;;;19.13;10.75;;;9.30;54.30;;;;;;5030712;28;20033;-77
2022/03/23 05:23:33;;;;;;;18.70;10.88;;;9.40;54.20;;;;;;5031120;28;20030;-77
2022/03/23 05:26:00;;;;;;;17.55;10.32;;;9.40;54.20;;;;;;5031189;28;20021;-77
2022/03/23 05:28:28;;;;;;;17.70;11.48;;;9.40;54.30;;;;;;5030798;28;20036;-77
2022/03/23 05:30:54;;;;;;;14.82;10.23;;;9.40;54.20;;;;;;5026689;28;20025;-77
2022/03/23 05:33:23;;;;;;;21.88;10.80;;;9.40;54.20;;;;;;5030941;28;20032;-77
2022/03/23 05:35:48;;;;;;;16.48;10.80;;;9.40;54.10;;;;;;5030768;28;20044;-77
2022/03/23 05:38:17;;;;;;;16.95;11.75;;;9.50;54.20;;;;;;5030825;28;20026;-77
2022/03/23 05:40:43;;;;;;;17.23;11.90;;;9.60;54.10;;;;;;5020905;28;20022;-76
2022/03/23 05:43:09;;;;;;;17.92;10.68;;;9.60;54.30;;;;;;5029543;28;20078;-77
2022/03/23 05:45:41;;;;;;;17.42;10.70;;;9.70;54.30;;;;;;5026776;28;20029;-77
2022/03/23 05:48:07;;;;;;;20.10;11.33;;;9.70;54.00;;;;;;5030867;28;20043;-76
2022/03/23 05:50:33;;;;;;;16.00;10.40;;;9.70;54.20;;;;;;5030505;28;20021;-76
2022/03/23 05:53:07;;;;;;;15.10;10.57;;;9.70;54.40;;;;;;5030553;28;20464;-76
2022/03/23 05:55:35;;;;;;;17.33;10.43;;;9.80;54.40;;;;;;5030461;28;20046;-76
2022/03/23 05:58:03;;;;;;;15.63;9.85;;;9.90;54.20;;;;;;5024308;28;20037;-76
2022/03/23 06:00:30;;;;;;;20.92;11.05;;;10.10;53.90;;;;;;5026653;28;20040;-76
2022/03/23 06:02:56;;;;;;;14.73;9.85;;;10.20;53.70;;;;;;5021877;28;20022;-76
2022/03/23 06:05:22;;;;;;;14.90;11.02;;;10.20;53.50;;;;;;5030406;28;20040;-76
2022/03/23 06:07:48;;;;;;;19.58;11.32;;;10.30;53.40;;;;;;5029200;28;20029;-76
2022/03/23 06:10:14;;;;;;;19.00;10.93;;;10.40;53.40;;;;;;5030382;28;20083;-76
2022/03/23 06:12:40;;;;;;;14.30;11.02;;;10.50;53.30;;;;;;5029086;28;20083;-76
2022/03/23 06:15:08;;;;;;;16.38;9.80;;;10.50;53.40;;;;;;5030455;28;20029;-77
2022/03/23 06:17:35;;;;;;;18.63;12.00;;;10.60;53.50;;;;;;5032794;28;20421;-77
2022/03/23 06:20:02;;;;;;;16.73;11.10;;;10.60;54.50;;;;;;5034002;28;20037;-77
2022/03/23 06:22:28;;;;;;;18.05;11.10;;;10.70;54.00;;;;;;5034454;28;20021;-76
2022/03/23 06:24:54;;;;;;;18.63;11.45;;;10.70;54.60;;;;;;5033278;28;20072;-77
2022/03/23 06:27:19;;;;;;;15.43;10.55;;;10.80;54.00;;;;;;5034504;28;20017;-76
2022/03/23 06:29:45;;;;;;;19.08;10.88;;;10.90;54.20;;;;;;5033968;28;20025;-76
2022/03/23 06:32:12;;;;;;;13.57;10.55;;;11.00;53.90;;;;;;5033544;28;20121;-77
2022/03/23 06:34:38;;;;;;;19.85;10.95;;;11.10;53.20;;;;;;5033602;28;20025;-78
2022/03/23 06:37:04;;;;;;;14.80;10.63;;;11.30;53.00;;;;;;5034506;28;20112;-77
2022/03/23 06:39:31;;;;;;;13.65;9.65;;;11.50;52.90;;;;;;5020960;28;20113;-77
2022/03/23 06:41:57;;;;;;;15.45;11.50;;;11.60;52.90;;;;;;5033988;28;20448;-78
2022/03/23 06:44:23;;;;;;;14.68;10.10;;;11.70;52.30;;;;;;5034047;28;20108;-78
2022/03/23 06:46:49;;;;;;;20.58;10.80;;;11.80;52.00;;;;;;5034164;28;20033;-78
2022/03/23 06:49:16;;;;;;;18.83;10.52;;;11.90;52.30;;;;;;5033739;28;20400;-78
2022/03/23 06:51:42;;;;;;;15.20;9.90;;;12.00;51.90;;;;;;5033810;28;20488;-78
2022/03/23 06:54:08;;;;;;;16.42;10.70;;;12.10;52.10;;;;;;5033773;28;20026;-79
2022/03/23 06:56:34;;;;;;;20.98;12.07;;;12.20;51.70;;;;;;5033781;28;20480;-79
2022/03/23 06:59:04;;;;;;;45.35;22.08;;;12.30;51.50;;;;;;5028392;28;20029;-79
2022/03/23 07:01:30;;;;;;;27.08;12.00;;;12.30;52.20;;;;;;5034075;28;20116;-78
2022/03/23 07:03:56;;;;;;;29.83;15.73;;;12.40;51.40;;;;;;5027502;28;20498;-78
2022/03/23 07:06:22;;;;;;;21.70;11.27;;;12.60;52.70;;;;;;5033673;28;20224;-78
2022/03/23 07:11:32;;;;;;;15.10;10.00;;;12.80;52.60;;;;;;5033904;28;20079;-78
2022/03/23 07:13:58;;;;;;;24.95;12.73;;;12.90;52.00;;;;;;5033396;28;20018;-78
2022/03/23 07:16:24;;;;;;;18.45;10.35;;;13.00;51.30;;;;;;5033274;28;20188;-78
2022/03/23 07:18:50;;;;;;;12.85;8.85;;;13.20;51.00;;;;;;5033182;28;20021;-78
2022/03/23 07:21:18;;;;;;;11.70;9.10;;;13.40;50.80;;;;;;5033060;28;20107;-79
2022/03/23 07:23:43;;;;;;;14.82;9.05;;;13.60;49.80;;;;;;5033211;28;20028;-78
2022/03/23 07:26:09;;;;;;;12.00;8.27;;;13.70;49.40;;;;;;5031538;28;20034;-79
2022/03/23 07:28:35;;;;;;;12.88;8.73;;;13.90;49.00;;;;;;5048237;28;20081;-78
2022/03/23 07:31:01;;;;;;;14.18;8.50;;;13.90;49.50;;;;;;5037099;28;20025;-79
2022/03/23 07:33:28;;;;;;;12.70;7.97;;;14.00;49.60;;;;;;5036069;28;20021;-79
2022/03/23 07:35:55;;;;;;;10.02;7.95;;;14.20;48.40;;;;;;5048211;28;20033;-78
2022/03/23 07:38:20;;;;;;;12.98;8.77;;;14.40;47.30;;;;;;5047256;28;20024;-79
2022/03/23 07:40:49;;;;;;;13.90;8.48;;;14.50;47.50;;;;;;5034292;28;20030;-78
2022/03/23 07:43:15;;;;;;;15.77;8.65;;;14.60;47.20;;;;;;5033615;28;20026;-79
2022/03/23 07:45:41;;;;;;;11.07;8.50;;;14.80;48.80;;;;;;5033156;28;20501;-80
2022/03/23 07:48:06;;;;;;;14.57;8.20;;;14.80;46.80;;;;;;5032986;28;20017;-79
2022/03/23 07:50:35;;;;;;;18.52;8.57;;;14.90;46.70;;;;;;5032897;28;20030;-76
2022/03/23 07:53:22;;;;;;;15.18;8.13;;;15.00;47.30;;;;;;5032686;28;20014;-77
2022/03/23 07:55:47;;;;;;;11.52;8.35;;;15.10;46.20;;;;;;5024207;28;20050;-78
2022/03/23 07:58:13;;;;;;;18.48;8.48;;;15.20;46.40;;;;;;5032438;28;20068;-78
2022/03/23 08:00:41;;;;;;;11.38;8.38;;;15.20;46.10;;;;;;5031321;28;20038;-78
2022/03/23 08:03:10;;;;;;;9.77;7.95;;;15.30;46.00;;;;;;5029641;28;20112;-78
2022/03/23 08:05:39;;;;;;;13.30;8.45;;;15.30;46.50;;;;;;5030647;28;20116;-78
2022/03/23 08:08:08;;;;;;;9.70;7.13;;;15.40;47.20;;;;;;5030615;28;20033;-78
2022/03/23 08:10:35;;;;;;;11.23;8.20;;;15.40;46.40;;;;;;5030610;28;20029;-78
2022/03/23 08:13:01;;;;;;;10.90;8.18;;;15.50;46.10;;;;;;5030688;28;20028;-78
2022/03/23 08:15:29;;;;;;;8.90;7.22;;;15.60;46.70;;;;;;5029656;28;20112;-78
2022/03/23 08:17:56;;;;;;;14.40;8.13;;;15.70;45.80;;;;;;5032296;28;20071;-78
2022/03/23 08:20:33;;;;;;;11.18;8.07;;;15.80;46.00;;;;;;5047428;28;20504;-78
2022/03/23 08:23:05;;;;;;;9.57;7.57;;;15.80;47.90;;;;;;5022589;28;20026;-78
2022/03/23 08:25:31;;;;;;;10.45;7.72;;;15.80;45.90;;;;;;5031780;28;20033;-78
2022/03/23 08:27:58;;;;;;;14.77;8.10;;;15.90;46.10;;;;;;5027684;28;20026;-77
2022/03/23 08:30:24;;;;;;;14.65;8.80;;;16.00;46.30;;;;;;5031828;28;20033;-78
2022/03/23 08:32:50;;;;;;;13.68;7.68;;;16.00;46.60;;;;;;5029889;28;20033;-77
2022/03/23 08:35:17;;;;;;;13.25;7.07;;;16.10;48.40;;;;;;5031706;28;20090;-77
2022/03/23 08:37:43;;;;;;;13.25;8.05;;;16.20;47.30;;;;;;5031655;28;20045;-78
2022/03/23 08:40:09;;;;;;;11.18;7.50;;;16.30;45.90;;;;;;5030640;28;20053;-77
2022/03/23 08:42:34;;;;;;;11.23;8.15;;;16.40;44.60;;;;;;5030348;28;20026;-77
2022/03/23 08:45:02;;;;;;;15.05;8.00;;;16.50;45.20;;;;;;5031520;28;20079;-77
2022/03/23 08:47:27;;;;;;;10.68;7.40;;;16.60;46.20;;;;;;5031566;28;20099;-77
2022/03/23 08:49:56;;;;;;;15.32;7.95;;;16.60;44.70;;;;;;5031202;28;20590;-77
2022/03/23 08:52:24;;;;;;;10.02;7.43;;;16.60;43.70;;;;;;5031463;28;20030;-77
2022/03/23 08:54:50;;;;;;;11.30;7.90;;;16.80;44.40;;;;;;5031097;28;20400;-77
2022/03/23 08:57:16;;;;;;;16.08;7.80;;;16.90;44.70;;;;;;5031551;28;20029;-77
2022/03/23 08:59:42;;;;;;;14.20;8.02;;;16.90;44.50;;;;;;5031474;28;20388;-77
2022/03/23 09:02:08;;;;;;;10.73;6.93;;;16.90;43.70;;;;;;5032077;28;20022;-77
2022/03/23 09:04:34;;;;;;;14.90;7.78;;;16.90;44.60;;;;;;5017604;28;20084;-77
2022/03/23 09:07:00;;;;;;;14.02;7.75;;;17.00;46.00;;;;;;5031546;28;20034;-77
2022/03/23 09:09:25;;;;;;;10.18;7.75;;;17.00;45.90;;;;;;5031017;28;20384;-77
2022/03/23 09:11:51;;;;;;;18.15;7.85;;;17.10;44.60;;;;;;5031007;28;20035;-77
2022/03/23 09:14:17;;;;;;;10.52;7.53;;;17.20;45.20;;;;;;5030849;28;20088;-77
2022/03/23 09:16:43;;;;;;;11.63;7.50;;;17.20;45.10;;;;;;5031060;28;20494;-77
2022/03/23 09:19:09;;;;;;;9.02;7.50;;;17.30;44.80;;;;;;5024735;28;20021;-77
2022/03/23 09:21:38;;;;;;;13.40;8.55;;;17.30;43.30;;;;;;5030667;28;20084;-77
2022/03/23 09:24:05;;;;;;;12.05;7.90;;;17.40;43.80;;;;;;5026274;28;20109;-77
2022/03/23 09:26:31;;;;;;;10.00;7.43;;;17.50;43.20;;;;;;5030916;28;20099;-77
2022/03/23 09:28:57;;;;;;;12.82;7.07;;;17.60;44.00;;;;;;5030896;28;20469;-77
2022/03/23 09:31:22;;;;;;;12.43;7.78;;;17.70;43.70;;;;;;5030749;28;20021;-77
2022/03/23 09:33:49;;;;;;;13.85;8.20;;;17.70;42.30;;;;;;5029452;28;20022;-77
2022/03/23 09:37:47;;;;;;;15.05;7.90;;;17.80;43.40;;;;;;5025899;28;20493;-77
2022/03/23 09:39:07;;;;;;;13.20;7.72;;;17.80;43.60;;;;;;5026290;28;20021;-77
2022/03/23 09:41:34;;;;;;;10.73;8.07;;;18.00;43.60;;;;;;5030668;28;20406;-77
2022/03/23 09:44:00;;;;;;;10.25;7.72;;;18.10;41.90;;;;;;5025410;28;20014;-77
2022/03/23 09:46:27;;;;;;;12.60;7.43;;;18.20;42.00;;;;;;5019183;28;20030;-77
2022/03/23 09:48:53;;;;;;;11.52;7.55;;;18.30;43.60;;;;;;5029487;28;20025;-77
2022/03/23 09:51:20;;;;;;;11.48;8.45;;;18.40;44.10;;;;;;5019913;28;20030;-78
2022/03/23 09:53:48;;;;;;;12.50;7.97;;;18.50;45.10;;;;;;5028629;28;20021;-77
2022/03/23 09:56:14;;;;;;;17.42;10.15;;;18.70;43.00;;;;;;5030295;28;20041;-77
2022/03/23 09:58:43;;;;;;;41.67;25.02;;;18.50;48.00;;;;;;5030464;28;20022;-77
2022/03/23 10:01:46;;;;;;;37.63;18.48;;;18.00;49.20;;;;;;5030550;28;20029;-77
2022/03/23 10:04:37;;;;;;;17.17;8.43;;;17.30;49.20;;;;;;5025944;28;20042;-77
2022/03/23 10:07:47;;;;;;;17.35;8.55;;;17.20;47.80;;;;;;5030312;28;20029;-77
2022/03/23 10:10:49;;;;;;;17.23;7.97;;;17.00;48.30;;;;;;5028858;28;20037;-77
2022/03/23 10:13:22;;;;;;;10.77;7.85;;;17.00;47.70;;;;;;5024001;28;20065;-77
2022/03/23 10:16:41;;;;;;;13.90;8.45;;;16.80;47.50;;;;;;5022307;28;20052;-77
2022/03/23 10:19:07;;;;;;;17.05;8.32;;;16.80;47.10;;;;;;5026081;28;20025;-77
2022/03/23 10:21:38;;;;;;;15.02;8.50;;;17.00;47.00;;;;;;5030543;28;20029;-77
2022/03/23 10:24:04;;;;;;;11.97;7.80;;;17.00;47.50;;;;;;5025717;28;20017;-77
2022/03/23 10:26:33;;;;;;;17.35;8.85;;;17.00;48.50;;;;;;5030149;28;20037;-77
2022/03/23 10:28:59;;;;;;;11.30;8.35;;;17.10;51.30;;;;;;5030072;28;20476;-77
2022/03/23 10:31:27;;;;;;;13.82;7.68;;;17.20;52.10;;;;;;5030254;28;20033;-77
2022/03/23 10:34:00;;;;;;;17.75;8.07;;;17.10;50.60;;;;;;5030281;28;20140;-77
2022/03/23 10:36:29;;;;;;;12.00;8.00;;;17.10;48.90;;;;;;5030147;28;20045;-77
2022/03/23 10:39:06;;;;;;;11.27;7.60;;;17.00;49.10;;;;;;5020788;28;20029;-77
2022/03/23 10:41:32;;;;;;;8.38;6.72;;;17.10;47.70;;;;;;5028238;28;20036;-76
2022/03/23 10:43:59;;;;;;;13.30;7.45;;;17.10;48.50;;;;;;5029853;28;20100;-77
2022/03/23 10:46:25;;;;;;;15.70;7.55;;;17.30;48.00;;;;;;5018879;28;20026;-77
2022/03/23 10:49:02;;;;;;;13.63;7.68;;;17.30;48.10;;;;;;5027432;28;20040;-77
2022/03/23 10:51:31;;;;;;;11.68;7.25;;;17.30;47.10;;;;;;5029938;28;20025;-77
2022/03/23 10:54:15;;;;;;;10.38;8.05;;;17.40;46.60;;;;;;5029645;28;20092;-77
2022/03/23 10:56:42;;;;;;;12.43;6.60;;;17.40;46.40;;;;;;5030045;28;20575;-76
2022/03/23 10:59:28;;;;;;;15.15;7.20;;;17.50;45.50;;;;;;5030092;28;20030;-77
2022/03/23 11:02:10;;;;;;;16.23;6.60;;;17.50;47.00;;;;;;5030747;28;20407;-77
2022/03/23 11:04:56;;;;;;;20.27;7.95;;;17.50;47.40;;;;;;5033320;28;20496;-77
2022/03/23 11:07:35;;;;;;;17.98;7.63;;;17.40;48.00;;;;;;5033090;28;20168;-77
2022/03/23 11:15:49;;;;;;;13.38;7.68;;;17.20;49.00;;;;;;5038949;28;20052;-76
2022/03/23 11:18:19;;;;;;;9.52;6.68;;;17.30;47.90;;;;;;5036510;28;20079;-77
2022/03/23 11:20:53;;;;;;;12.30;7.78;;;17.50;45.50;;;;;;5024252;28;20037;-77
2022/03/23 11:23:23;;;;;;;8.95;7.07;;;17.50;46.10;;;;;;5039392;28;20021;-77
2022/03/23 11:26:02;;;;;;;10.60;6.97;;;17.50;46.90;;;;;;5040129;28;20044;-77
2022/03/23 11:28:40;;;;;;;10.65;7.38;;;17.50;48.00;;;;;;5028483;28;20033;-77
2022/03/23 11:31:10;;;;;;;13.13;7.50;;;17.50;48.10;;;;;;5031447;28;20175;-77
2022/03/23 11:33:37;;;;;;;11.02;6.93;;;17.60;46.40;;;;;;5033428;28;20029;-76
2022/03/23 11:36:08;;;;;;;10.82;6.65;;;17.60;45.70;;;;;;5032673;28;20056;-77
2022/03/23 11:38:37;;;;;;;11.88;7.40;;;17.50;45.70;;;;;;5032671;28;20093;-76
2022/03/23 11:41:05;;;;;;;12.02;7.05;;;17.60;46.00;;;;;;5032944;28;20051;-77
2022/03/23 11:43:34;;;;;;;15.40;6.90;;;17.70;49.00;;;;;;5032453;28;20033;-77
2022/03/23 11:46:16;;;;;;;10.45;6.80;;;17.60;50.60;;;;;;5032965;28;20018;-76
2022/03/23 11:49:01;;;;;;;12.70;7.00;;;17.40;53.20;;;;;;5032919;28;20484;-77
2022/03/23 11:51:49;;;;;;;17.63;7.47;;;17.30;50.80;;;;;;5032797;28;20264;-80
2022/03/23 11:57:54;;;;;;;16.15;7.53;;;17.10;48.00;;;;;;5031469;28;20645;-76
2022/03/23 12:00:28;;;;;;;8.13;6.40;;;17.40;49.90;;;;;;5029143;28;20037;-77
2022/03/23 12:02:55;;;;;;;11.75;6.90;;;17.70;48.20;;;;;;5032502;28;20431;-76
2022/03/23 12:05:26;;;;;;;9.95;6.65;;;17.70;48.00;;;;;;5030019;28;20472;-78
2022/03/23 12:07:53;;;;;;;11.57;7.22;;;17.70;51.30;;;;;;5032427;28;20040;-77
2022/03/23 12:10:31;;;;;;;15.55;7.35;;;17.60;52.40;;;;;;5032358;28;20031;-78
2022/03/23 12:13:18;;;;;;;17.50;7.30;;;17.30;54.30;;;;;;5023722;28;20076;-77
2022/03/23 12:16:06;;;;;;;13.52;7.25;;;17.10;52.30;;;;;;5023696;28;20037;-79
2022/03/23 12:18:43;;;;;;;9.43;6.70;;;17.30;51.20;;;;;;5032223;28;20154;-80
2022/03/23 12:21:11;;;;;;;6.78;5.57;;;20.20;47.30;;;;;;5032124;28;20029;-79
2022/03/23 12:24:01;;;;;;;11.18;6.28;;;23.00;42.90;;;;;;5032056;28;20032;-80
2022/03/23 12:26:35;;;;;;;10.65;6.45;;;24.10;42.40;;;;;;5034464;28;20083;-79
2022/03/23 12:29:25;;;;;;;12.88;7.00;;;24.60;42.40;;;;;;5027007;28;20070;-79
2022/03/23 12:32:03;;;;;;;11.70;6.55;;;25.20;42.00;;;;;;5031839;28;20062;-77
2022/03/23 12:34:30;;;;;;;13.05;6.63;;;25.70;43.10;;;;;;5031491;28;20022;-77
2022/03/23 12:37:10;;;;;;;54.20;8.77;;;25.90;41.50;;;;;;5031892;28;20036;-78
2022/03/23 12:39:53;;;;;;;13.10;6.47;;;26.10;38.80;;;;;;5031520;28;20017;-78
2022/03/23 12:42:21;;;;;;;9.43;6.03;;;27.20;38.80;;;;;;5030091;28;20021;-78
2022/03/23 12:44:49;;;;;;;12.35;7.13;;;26.40;38.20;;;;;;5030638;28;20065;-77
2022/03/23 12:47:22;;;;;;;18.20;6.80;;;25.90;40.50;;;;;;5032170;28;20084;-78
2022/03/23 12:58:24;;;;;;;9.40;6.25;;;26.10;40.30;;;;;;5025900;28;20495;-80
2022/03/23 13:00:55;;;;;;;8.02;5.90;;;26.80;41.00;;;;;;5031726;28;20035;-79
2022/03/23 13:03:22;;;;;;;11.02;5.95;;;27.10;40.10;;;;;;5027528;28;20021;-79
2022/03/23 13:06:00;;;;;;;10.40;6.55;;;27.00;40.50;;;;;;5031277;28;20029;-80
2022/03/23 13:08:35;;;;;;;13.65;6.90;;;27.00;41.70;;;;;;5027425;28;20506;-77
2022/03/23 13:11:03;;;;;;;15.82;7.47;;;27.40;43.30;;;;;;5031100;28;20033;-77
2022/03/23 13:13:32;;;;;;;11.23;6.90;;;26.50;43.90;;;;;;5031293;28;20376;-77
2022/03/23 13:15:59;;;;;;;23.55;7.82;;;26.30;44.00;;;;;;5031050;28;20614;-77
2022/03/23 13:18:30;;;;;;;16.67;6.95;;;26.10;43.50;;;;;;5027244;28;20116;-77
2022/03/23 13:20:57;;;;;;;11.10;6.80;;;25.90;42.30;;;;;;5023716;28;20400;-77
2022/03/23 13:23:25;;;;;;;14.18;7.22;;;25.80;42.60;;;;;;5025704;28;20480;-77
2022/03/23 13:26:13;;;;;;;11.23;6.88;;;26.40;40.40;;;;;;5033100;28;20503;-77
2022/03/23 13:28:47;;;;;;;10.93;6.55;;;27.20;39.70;;;;;;5027089;28;20455;-77
2022/03/23 13:31:15;;;;;;;13.40;6.50;;;27.00;36.70;;;;;;5031037;28;20032;-77
2022/03/23 13:33:43;;;;;;;9.02;6.57;;;26.60;37.00;;;;;;5030732;28;20388;-77
2022/03/23 13:36:11;;;;;;;11.20;6.20;;;26.90;36.20;;;;;;5030811;28;20033;-77
2022/03/23 13:38:42;;;;;;;12.02;6.78;;;28.00;34.60;;;;;;5030919;28;20631;-77
2022/03/23 13:43:59;;;;;;;10.52;5.93;;;27.70;34.50;;;;;;5030521;28;20622;-78
2022/03/23 13:46:37;;;;;;;10.07;6.22;;;27.20;35.20;;;;;;5023901;28;20025;-79